メインページ
METAR-TAF:

METAR-TAF

空港 :

アルマトイ国際空港

アルマトイ, カザフスタン

緯度: 43-14N, 経度: 076-56E, 海抜: 847m

現時点の気象観測

当レポートは19分前の12:00(UTC)に作成
の風 4kt
気温 -11°C
湿度 85%
気圧 1032 hPa
視程: 4300m
高度20000ftの雲はほとんどない
靄, 煙

METAR: UAAA 141200Z 35002MPS 4300 BR FU FEW200 M11/M13 Q1032 R88/91//50 NOSIG

時間: 18:19 (12:19 UTC)

予報

当レポートは1時間19分前の11:00(UTC)に作成
予報は14日の 12時(UTC)から 15日の 12時(UTC)まで有効
南/南東の風 10kt
視程: 1500m
高度1000ftの雲は散在している
高度10000ftの千切れ雲あり
靄, 煙
14日の 12時(UTC)から 14日の 16時(UTC)まで一時的に
視程: 0700m
高度300ftの雲は散在している
着氷性の霧
14日の 16時(UTC)から 15日の 02時(UTC)まで一時的に
視程: 0300m
高度200ftの
着氷性の霧
15日の 05時(UTC)から 15日の 06時(UTC)まで徐々に
北/北東の風 10kt
視程10km以上

TAF: UAAA 141100Z 1412/1512 16005MPS 1500 BR FU SCT010 BKN100 TXM06/1508Z TNM16/1501Z TEMPO 1412/1416 0700 FZFG SCT003 TEMPO 1416/1502 0300 FZFG VV002 BECMG 1505/1506 02005MPS 9999 NSW

4,000以上の空港の気象観測と天気予報(METAR報とTAF報)

利用可能な観測所は地図上に黄色い丸と赤い丸で示す。

丸の上にカーソルを重ねると観測所名を参照できる。

次にクリックすると気象観測と天気予報を参照できる。

マップの切り替え:黒色「×」印の緑ボタンをクリックして拡大、「-」印の緑ボタンをクリックして縮小、緑色の三角印をクリックして隣りの地図に切り替え


METAR-TAF: